createdAt,value
2022-10-25T00:00:18.680Z,14.25
2022-10-25T00:01:18.798Z,14.26
2022-10-25T00:02:18.746Z,14.25
2022-10-25T00:03:19.664Z,14.28
2022-10-25T00:04:18.701Z,14.26
2022-10-25T00:05:18.648Z,14.32
2022-10-25T00:06:18.635Z,14.40
2022-10-25T00:07:18.622Z,14.41
2022-10-25T00:08:18.616Z,14.44
2022-10-25T00:09:18.639Z,14.47
2022-10-25T00:10:21.102Z,14.41
2022-10-25T00:11:19.593Z,14.48
2022-10-25T00:12:18.589Z,14.44
2022-10-25T00:13:18.584Z,14.48
2022-10-25T00:14:18.628Z,14.51
2022-10-25T00:15:18.560Z,14.53
2022-10-25T00:16:18.550Z,14.50
2022-10-25T00:17:18.540Z,14.45
2022-10-25T00:18:18.542Z,14.58
2022-10-25T00:19:18.580Z,14.51
2022-10-25T00:20:18.513Z,14.44
2022-10-25T00:21:18.508Z,14.48
2022-10-25T00:22:18.503Z,14.45
2022-10-25T00:23:18.488Z,14.37
2022-10-25T00:24:18.483Z,14.25
2022-10-25T00:25:18.501Z,14.25
2022-10-25T00:26:18.464Z,14.26
2022-10-25T00:27:18.452Z,14.15
2022-10-25T00:28:18.444Z,14.20
2022-10-25T00:29:18.498Z,14.20
2022-10-25T00:30:18.457Z,14.19
2022-10-25T00:31:18.421Z,14.15
2022-10-25T00:32:18.413Z,14.01
2022-10-25T00:33:18.407Z,13.89
2022-10-25T00:34:18.395Z,13.96
2022-10-25T00:35:18.414Z,13.93
2022-10-25T00:36:18.383Z,13.96
2022-10-25T00:37:18.373Z,14.00
2022-10-25T00:38:18.362Z,13.95
2022-10-25T00:39:18.355Z,13.82
2022-10-25T00:40:18.376Z,13.77
2022-10-25T00:41:18.338Z,13.82
2022-10-25T00:42:18.333Z,13.82
2022-10-25T00:43:18.325Z,13.78
2022-10-25T00:44:18.314Z,13.75
2022-10-25T00:45:18.329Z,13.75
2022-10-25T00:46:18.299Z,13.74
2022-10-25T00:47:18.290Z,13.72
2022-10-25T00:48:18.282Z,13.75
2022-10-25T00:49:18.271Z,13.68
2022-10-25T00:50:18.284Z,13.63
2022-10-25T00:51:18.253Z,13.57
2022-10-25T00:52:18.235Z,13.55
2022-10-25T00:53:18.231Z,13.56
2022-10-25T00:54:18.290Z,13.65
2022-10-25T00:55:18.245Z,13.47
2022-10-25T00:56:18.209Z,13.52
2022-10-25T00:57:18.193Z,13.53
2022-10-25T00:58:18.193Z,13.56
2022-10-25T00:59:18.189Z,13.60
2022-10-25T01:00:18.214Z,13.64
2022-10-25T01:01:18.261Z,13.60
2022-10-25T01:02:18.232Z,13.60
2022-10-25T01:03:18.146Z,13.55
2022-10-25T01:04:18.142Z,13.46
2022-10-25T01:05:18.161Z,13.46
2022-10-25T01:06:18.145Z,13.31
2022-10-25T01:07:18.111Z,13.33
2022-10-25T01:08:18.106Z,13.22
2022-10-25T01:09:18.104Z,13.18
2022-10-25T01:10:18.118Z,13.16
2022-10-25T01:12:18.070Z,13.15
2022-10-25T01:13:18.064Z,13.09
2022-10-25T01:14:18.061Z,13.15
2022-10-25T01:15:18.079Z,13.13
2022-10-25T01:16:18.031Z,13.12
2022-10-25T01:17:18.028Z,13.08
2022-10-25T01:18:18.020Z,13.05
2022-10-25T01:19:18.008Z,13.12
2022-10-25T01:20:18.048Z,13.06
2022-10-25T01:21:17.989Z,13.18
2022-10-25T01:22:17.988Z,13.09
2022-10-25T01:23:17.975Z,13.11
2022-10-25T01:24:17.969Z,13.16
2022-10-25T01:25:17.989Z,13.21
2022-10-25T01:26:17.948Z,13.16
2022-10-25T01:27:17.940Z,13.22
2022-10-25T01:28:17.935Z,13.18
2022-10-25T01:29:17.921Z,13.08
2022-10-25T01:30:17.950Z,13.19
2022-10-25T01:31:17.910Z,13.13
2022-10-25T01:32:17.906Z,13.22
2022-10-25T01:33:17.894Z,13.12
2022-10-25T01:34:17.880Z,13.12
2022-10-25T01:35:17.905Z,13.09
2022-10-25T01:36:17.890Z,13.18
2022-10-25T01:37:17.861Z,13.06
2022-10-25T01:38:17.854Z,13.06
2022-10-25T01:39:17.843Z,13.09
2022-10-25T01:40:17.865Z,12.98
2022-10-25T01:41:17.827Z,12.98
2022-10-25T01:42:17.817Z,12.97
2022-10-25T01:43:17.806Z,12.94
2022-10-25T01:44:17.803Z,12.90
2022-10-25T01:45:17.819Z,12.87
2022-10-25T01:46:17.777Z,12.85
2022-10-25T01:47:17.783Z,12.87
2022-10-25T01:48:17.766Z,12.87
2022-10-25T01:49:17.756Z,12.88
2022-10-25T01:50:17.777Z,12.83
2022-10-25T01:51:17.737Z,12.79
2022-10-25T01:52:17.729Z,12.90
2022-10-25T01:53:17.725Z,12.88
2022-10-25T01:54:17.714Z,12.88
2022-10-25T01:55:17.742Z,12.87
2022-10-25T01:56:17.699Z,12.79
2022-10-25T01:57:36.685Z,12.65
2022-10-25T01:58:18.685Z,12.65
2022-10-25T01:59:17.677Z,12.76
2022-10-25T02:00:17.661Z,12.65
2022-10-25T02:01:17.882Z,12.55
2022-10-25T02:02:17.652Z,12.58
2022-10-25T02:03:17.634Z,12.51
2022-10-25T02:04:17.632Z,12.57
2022-10-25T02:05:17.626Z,12.47
2022-10-25T02:06:17.639Z,12.47
2022-10-25T02:07:17.609Z,12.47
2022-10-25T02:08:17.600Z,12.47
2022-10-25T02:09:17.593Z,12.45
2022-10-25T02:10:17.586Z,12.36
2022-10-25T02:11:17.606Z,12.42
2022-10-25T02:12:17.569Z,12.40
2022-10-25T02:13:17.555Z,12.42
2022-10-25T02:14:17.542Z,12.46
2022-10-25T02:15:17.542Z,12.39
2022-10-25T02:16:17.558Z,12.43
2022-10-25T02:17:17.527Z,12.47
2022-10-25T02:18:17.563Z,12.47
2022-10-25T02:19:17.503Z,12.50
2022-10-25T02:20:17.496Z,12.53
2022-10-25T02:21:17.522Z,12.61
2022-10-25T02:22:17.485Z,12.43
2022-10-25T02:23:17.466Z,12.38
2022-10-25T02:24:17.464Z,12.51
2022-10-25T02:25:17.472Z,12.53
2022-10-25T02:26:17.478Z,12.65
2022-10-25T02:27:17.431Z,12.68
2022-10-25T02:28:18.431Z,12.65
2022-10-25T02:29:17.433Z,12.75
2022-10-25T02:30:17.422Z,12.79
2022-10-25T02:31:17.432Z,12.82
2022-10-25T02:32:17.402Z,12.78
2022-10-25T02:33:17.400Z,12.88
2022-10-25T02:34:17.380Z,12.83
2022-10-25T02:35:17.383Z,12.87
2022-10-25T02:36:17.398Z,12.83
2022-10-25T02:37:17.353Z,12.79
2022-10-25T02:38:17.349Z,12.85
2022-10-25T02:39:17.335Z,12.80
2022-10-25T02:40:17.324Z,12.93
2022-10-25T02:41:17.349Z,12.85
2022-10-25T02:42:17.311Z,12.83
2022-10-25T02:43:17.319Z,12.91
2022-10-25T02:44:17.294Z,12.90
2022-10-25T02:45:17.297Z,12.90
2022-10-25T02:46:17.311Z,12.91
2022-10-25T02:47:17.272Z,12.98
2022-10-25T02:48:17.258Z,12.91
2022-10-25T02:49:17.256Z,12.90
2022-10-25T02:50:17.241Z,12.97
2022-10-25T02:51:17.261Z,13.03
2022-10-25T02:52:17.229Z,13.11
2022-10-25T02:53:17.215Z,13.08
2022-10-25T02:54:17.216Z,13.11
2022-10-25T02:55:17.203Z,13.09
2022-10-25T02:56:17.227Z,13.16
2022-10-25T02:57:17.184Z,13.19
2022-10-25T02:58:17.185Z,13.15
2022-10-25T02:59:17.175Z,13.11
2022-10-25T03:00:17.171Z,13.15
2022-10-25T03:01:17.296Z,13.11
2022-10-25T03:02:17.142Z,13.21
2022-10-25T03:03:17.134Z,13.21
2022-10-25T03:04:17.130Z,13.15
2022-10-25T03:05:17.118Z,13.18
2022-10-25T03:06:17.136Z,13.18
2022-10-25T03:07:17.115Z,13.09
2022-10-25T03:08:18.142Z,13.08
2022-10-25T03:09:17.082Z,13.08
2022-10-25T03:10:17.077Z,13.06
2022-10-25T03:11:17.089Z,13.09
2022-10-25T03:12:17.064Z,13.05
2022-10-25T03:13:17.049Z,13.06
2022-10-25T03:14:17.044Z,13.11
2022-10-25T03:15:17.035Z,13.03
2022-10-25T03:16:17.048Z,12.98
2022-10-25T03:17:17.016Z,12.97
2022-10-25T03:18:17.005Z,13.00
2022-10-25T03:19:17.005Z,13.01
2022-10-25T03:20:16.985Z,12.94
2022-10-25T03:21:17.008Z,12.91
2022-10-25T03:22:16.973Z,12.91
2022-10-25T03:23:16.957Z,12.97
2022-10-25T03:24:16.951Z,12.94
2022-10-25T03:25:16.943Z,12.97
2022-10-25T03:26:16.975Z,12.91
2022-10-25T03:27:16.934Z,13.03
2022-10-25T03:28:16.922Z,13.03
2022-10-25T03:29:16.918Z,13.05
2022-10-25T03:30:16.904Z,13.01
2022-10-25T03:31:16.902Z,13.06
2022-10-25T03:32:16.917Z,13.11
2022-10-25T03:33:16.913Z,13.08
2022-10-25T03:34:16.870Z,13.12
2022-10-25T03:35:16.861Z,13.11
2022-10-25T03:36:16.856Z,13.11
2022-10-25T03:37:16.871Z,13.09
2022-10-25T03:38:16.835Z,13.13
2022-10-25T03:39:16.836Z,13.18
2022-10-25T03:40:16.824Z,13.15
2022-10-25T03:41:16.829Z,13.22
2022-10-25T03:42:16.845Z,13.24
2022-10-25T03:43:16.878Z,13.29
2022-10-25T03:44:16.792Z,13.26
2022-10-25T03:45:16.784Z,13.22
2022-10-25T03:46:16.773Z,13.24
2022-10-25T03:47:16.793Z,13.27
2022-10-25T03:48:16.756Z,13.31
2022-10-25T03:49:16.747Z,13.24
2022-10-25T03:50:16.739Z,13.24
2022-10-25T03:51:16.736Z,13.27
2022-10-25T03:52:16.754Z,13.33
2022-10-25T03:53:16.715Z,13.35
2022-10-25T03:54:16.703Z,13.31
2022-10-25T03:55:16.695Z,13.33
2022-10-25T03:56:16.683Z,13.31
2022-10-25T03:57:16.708Z,13.38
2022-10-25T03:58:16.679Z,13.35
2022-10-25T03:59:16.663Z,13.33
2022-10-25T04:00:16.656Z,13.38
2022-10-25T04:01:16.831Z,13.30
2022-10-25T04:02:16.670Z,13.30
2022-10-25T04:03:16.633Z,13.43
2022-10-25T04:04:16.620Z,13.41
2022-10-25T04:05:16.611Z,13.39
2022-10-25T04:06:16.604Z,13.37
2022-10-25T04:07:16.626Z,13.38
2022-10-25T04:08:16.582Z,13.37
2022-10-25T04:09:16.585Z,13.29
2022-10-25T04:10:16.570Z,13.33
2022-10-25T04:11:16.559Z,13.24
2022-10-25T04:12:16.582Z,13.29
2022-10-25T04:13:16.543Z,13.33
2022-10-25T04:14:16.538Z,13.37
2022-10-25T04:15:16.532Z,13.26
2022-10-25T04:16:18.365Z,13.27
2022-10-25T04:17:16.533Z,13.21
2022-10-25T04:18:16.504Z,13.30
2022-10-25T04:19:16.493Z,13.31
2022-10-25T04:20:16.484Z,13.18
2022-10-25T04:21:16.474Z,13.27
2022-10-25T04:22:16.499Z,13.27
2022-10-25T04:23:16.450Z,13.12
2022-10-25T04:24:16.449Z,13.08
2022-10-25T04:25:16.438Z,13.18
2022-10-25T04:26:16.428Z,13.06
2022-10-25T04:27:16.456Z,13.18
2022-10-25T04:28:16.425Z,13.05
2022-10-25T04:29:16.403Z,13.03
2022-10-25T04:30:16.400Z,13.03
2022-10-25T04:31:16.386Z,13.00
2022-10-25T04:32:16.486Z,12.97
2022-10-25T04:33:16.369Z,12.94
2022-10-25T04:34:17.362Z,12.97
2022-10-25T04:35:16.356Z,12.93
2022-10-25T04:36:16.343Z,12.88
2022-10-25T04:37:16.373Z,12.91
2022-10-25T04:38:16.327Z,12.90
2022-10-25T04:39:17.319Z,12.94
2022-10-25T04:40:18.210Z,12.87
2022-10-25T04:41:16.302Z,12.87
2022-10-25T04:42:16.320Z,12.79
2022-10-25T04:43:16.344Z,12.75
2022-10-25T04:44:16.274Z,12.71
2022-10-25T04:45:16.264Z,12.82
2022-10-25T04:46:16.257Z,12.76
2022-10-25T04:47:16.283Z,12.69
2022-10-25T04:48:16.238Z,12.68
2022-10-25T04:49:16.231Z,12.63
2022-10-25T04:50:16.223Z,12.55
2022-10-25T04:51:16.217Z,12.65
2022-10-25T04:52:16.237Z,12.61
2022-10-25T04:53:16.198Z,12.68
2022-10-25T04:54:16.191Z,12.53
2022-10-25T04:55:16.180Z,12.54
2022-10-25T04:56:16.174Z,12.53
2022-10-25T04:57:16.195Z,12.36
2022-10-25T04:58:16.153Z,12.51
2022-10-25T04:59:16.151Z,12.43
2022-10-25T05:00:16.136Z,12.36
2022-10-25T05:01:16.162Z,12.39
2022-10-25T05:02:16.122Z,12.32
2022-10-25T05:03:16.168Z,12.38
2022-10-25T05:04:16.100Z,12.33
2022-10-25T05:05:16.096Z,12.42
2022-10-25T05:06:16.096Z,12.38
2022-10-25T05:07:16.079Z,12.46
2022-10-25T05:08:16.105Z,12.47
2022-10-25T05:09:16.068Z,12.47
2022-10-25T05:10:16.053Z,12.50
2022-10-25T05:11:16.057Z,12.40
2022-10-25T05:12:16.035Z,12.50
2022-10-25T05:13:16.057Z,12.51
2022-10-25T05:14:16.023Z,12.54
2022-10-25T05:15:16.008Z,12.55
2022-10-25T05:16:16.004Z,12.57
2022-10-25T05:17:15.997Z,12.47
2022-10-25T05:18:16.026Z,12.51
2022-10-25T05:19:15.983Z,12.39
2022-10-25T05:20:15.974Z,12.42
2022-10-25T05:21:16.019Z,12.50
2022-10-25T05:22:15.958Z,12.46
2022-10-25T05:23:15.968Z,12.60
2022-10-25T05:24:15.937Z,12.61
2022-10-25T05:25:15.928Z,12.45
2022-10-25T05:26:15.918Z,12.55
2022-10-25T05:27:15.914Z,12.61
2022-10-25T05:28:15.935Z,12.65
2022-10-25T05:29:15.897Z,12.53
2022-10-25T05:30:15.886Z,12.60
2022-10-25T05:31:16.015Z,12.53
2022-10-25T05:32:15.862Z,12.47
2022-10-25T05:33:15.888Z,12.46
2022-10-25T05:34:15.846Z,12.45
2022-10-25T05:35:15.840Z,12.40
2022-10-25T05:36:15.829Z,12.45
2022-10-25T05:37:15.831Z,12.46
2022-10-25T05:38:15.857Z,12.39
2022-10-25T05:39:15.808Z,12.40
2022-10-25T05:40:15.810Z,12.35
2022-10-25T05:41:15.799Z,12.39
2022-10-25T05:42:15.780Z,12.42
2022-10-25T05:43:15.808Z,12.50
2022-10-25T05:44:15.771Z,12.47
2022-10-25T05:45:15.762Z,12.43
2022-10-25T05:46:15.751Z,12.53
2022-10-25T05:47:15.742Z,12.63
2022-10-25T05:48:15.732Z,12.54
2022-10-25T05:49:15.761Z,12.61
2022-10-25T05:50:15.722Z,12.58
2022-10-25T05:51:28.955Z,12.64
2022-10-25T05:52:17.703Z,12.65
2022-10-25T05:53:15.690Z,12.63
2022-10-25T05:54:15.712Z,12.55
2022-10-25T05:55:15.676Z,12.63
2022-10-25T05:56:15.673Z,12.65
2022-10-25T05:57:15.663Z,12.73
2022-10-25T05:58:15.647Z,12.82
2022-10-25T05:59:15.670Z,12.68
2022-10-25T06:00:15.640Z,12.72
2022-10-25T06:01:15.691Z,12.71
2022-10-25T06:02:15.702Z,12.61
2022-10-25T06:03:15.609Z,12.75
2022-10-25T06:04:15.631Z,12.76
2022-10-25T06:05:15.606Z,12.65
2022-10-25T06:06:15.595Z,12.65
2022-10-25T06:07:15.571Z,12.63
2022-10-25T06:08:15.564Z,12.64
2022-10-25T06:09:15.598Z,12.65
2022-10-25T06:10:15.547Z,12.73
2022-10-25T06:11:15.548Z,12.68
2022-10-25T06:12:15.534Z,12.80
2022-10-25T06:13:15.523Z,12.79
2022-10-25T06:14:15.543Z,12.76
2022-10-25T06:15:15.501Z,12.76
2022-10-25T06:16:15.504Z,12.88
2022-10-25T06:17:15.483Z,12.85
2022-10-25T06:18:15.478Z,12.85
2022-10-25T06:19:15.501Z,12.93
2022-10-25T06:20:15.479Z,12.96
2022-10-25T06:21:15.466Z,12.91
2022-10-25T06:22:15.448Z,12.96
2022-10-25T06:23:15.438Z,12.93
2022-10-25T06:24:15.461Z,12.96
2022-10-25T06:25:15.443Z,12.97
2022-10-25T06:26:15.413Z,12.90
2022-10-25T06:27:15.430Z,12.97
2022-10-25T06:28:15.397Z,12.93
2022-10-25T06:29:15.420Z,12.93
2022-10-25T06:30:15.379Z,13.00
2022-10-25T06:31:15.372Z,12.97
2022-10-25T06:32:15.372Z,12.97
2022-10-25T06:33:15.361Z,13.01
2022-10-25T06:34:15.393Z,13.01
2022-10-25T06:35:15.336Z,12.98
2022-10-25T06:36:15.331Z,13.01
2022-10-25T06:37:15.330Z,13.03
2022-10-25T06:38:15.319Z,13.08
2022-10-25T06:39:15.343Z,13.11
2022-10-25T06:40:15.312Z,13.09
2022-10-25T06:41:15.288Z,13.24
2022-10-25T06:42:15.275Z,13.21
2022-10-25T06:43:15.263Z,13.24
2022-10-25T06:44:15.291Z,13.15
2022-10-25T06:45:15.257Z,13.15
2022-10-25T06:46:15.251Z,13.21
2022-10-25T06:47:17.658Z,13.18
2022-10-25T06:48:16.218Z,13.18
2022-10-25T06:49:15.254Z,13.24
2022-10-25T06:50:15.207Z,13.21
2022-10-25T06:51:15.199Z,13.24
2022-10-25T06:52:15.193Z,13.29
2022-10-25T06:53:15.189Z,13.31
2022-10-25T06:54:15.208Z,13.33
2022-10-25T06:55:15.157Z,13.46
2022-10-25T06:56:15.330Z,13.33
2022-10-25T06:57:15.144Z,13.43
2022-10-25T06:58:15.141Z,13.50
2022-10-25T06:59:15.128Z,13.49
2022-10-25T07:00:15.164Z,13.56
2022-10-25T07:01:15.237Z,13.68
2022-10-25T07:02:15.242Z,13.70
2022-10-25T07:03:15.092Z,13.77
2022-10-25T07:04:15.129Z,13.74
2022-10-25T07:05:15.078Z,13.71
2022-10-25T07:06:15.064Z,13.75
2022-10-25T07:07:15.065Z,13.78
2022-10-25T07:08:15.057Z,13.78
2022-10-25T07:09:15.071Z,13.82
2022-10-25T07:10:15.029Z,13.86
2022-10-25T07:11:15.024Z,13.93
2022-10-25T07:12:15.021Z,13.88
2022-10-25T07:13:15.010Z,14.03
2022-10-25T07:14:14.996Z,14.08
2022-10-25T07:15:15.070Z,14.08
2022-10-25T07:16:14.984Z,14.11
2022-10-25T07:17:14.974Z,14.19
2022-10-25T07:18:14.962Z,14.19
2022-10-25T07:19:14.987Z,14.18
2022-10-25T07:20:14.942Z,14.25
2022-10-25T07:21:14.940Z,14.28
2022-10-25T07:22:14.931Z,14.22
2022-10-25T07:23:14.928Z,14.26
2022-10-25T07:24:14.920Z,14.23
2022-10-25T07:25:14.954Z,14.23
2022-10-25T07:26:14.899Z,14.25
2022-10-25T07:27:14.888Z,14.19
2022-10-25T07:28:14.878Z,14.25
2022-10-25T07:29:15.090Z,14.30
2022-10-25T07:30:14.889Z,14.30
2022-10-25T07:31:14.851Z,14.28
2022-10-25T07:32:14.836Z,14.08
2022-10-25T07:33:14.830Z,14.23
2022-10-25T07:34:14.822Z,14.23
2022-10-25T07:35:14.854Z,14.25
2022-10-25T07:36:14.822Z,14.23
2022-10-25T07:37:14.799Z,14.25
2022-10-25T07:38:14.787Z,14.18
2022-10-25T07:39:14.778Z,14.15
2022-10-25T07:40:14.808Z,14.23
2022-10-25T07:41:14.766Z,14.15
2022-10-25T07:42:14.750Z,14.11
2022-10-25T07:43:14.737Z,14.15
2022-10-25T07:44:17.588Z,14.20
2022-10-25T07:45:18.685Z,14.25
2022-10-25T07:46:15.718Z,14.25
2022-10-25T07:47:14.708Z,14.28
2022-10-25T07:48:14.705Z,14.44
2022-10-25T07:49:14.694Z,14.40
2022-10-25T07:50:14.710Z,14.45
2022-10-25T07:51:14.691Z,14.44
2022-10-25T07:52:14.673Z,14.45
2022-10-25T07:53:14.660Z,14.61
2022-10-25T07:54:14.654Z,14.73
2022-10-25T07:55:14.685Z,14.82
2022-10-25T07:56:17.464Z,14.79
2022-10-25T07:57:15.628Z,14.70
2022-10-25T07:58:14.614Z,14.65
2022-10-25T07:59:14.611Z,14.68
2022-10-25T08:00:14.640Z,14.62
2022-10-25T08:01:14.614Z,14.56
2022-10-25T08:02:14.577Z,14.55
2022-10-25T08:03:14.686Z,14.50
2022-10-25T08:04:14.561Z,14.51
2022-10-25T08:05:14.562Z,14.53
2022-10-25T08:06:14.579Z,14.53
2022-10-25T08:07:14.546Z,14.65
2022-10-25T08:08:14.532Z,14.58
2022-10-25T08:09:33.121Z,14.53
2022-10-25T08:10:15.555Z,14.51
2022-10-25T08:11:14.519Z,14.51
2022-10-25T08:12:16.212Z,14.50
2022-10-25T08:13:14.483Z,14.50
2022-10-25T08:14:14.543Z,14.50
2022-10-25T08:15:14.485Z,14.50
2022-10-25T08:16:14.504Z,14.47
2022-10-25T08:17:14.454Z,14.47
2022-10-25T08:18:14.448Z,14.55
2022-10-25T08:19:14.443Z,14.61
2022-10-25T08:20:14.433Z,14.58
2022-10-25T08:21:14.451Z,14.66
2022-10-25T08:22:14.435Z,14.59
2022-10-25T08:23:14.421Z,14.81
2022-10-25T08:24:14.484Z,14.78
2022-10-25T08:25:14.393Z,14.73
2022-10-25T08:26:14.417Z,14.61
2022-10-25T08:27:14.376Z,14.65
2022-10-25T08:28:14.368Z,14.59
2022-10-25T08:29:14.349Z,14.59
2022-10-25T08:30:14.346Z,14.61
2022-10-25T08:31:14.431Z,14.68
2022-10-25T08:32:14.330Z,14.74
2022-10-25T08:33:14.325Z,14.87
2022-10-25T08:34:14.326Z,14.77
2022-10-25T08:35:14.316Z,14.74
2022-10-25T08:36:14.333Z,14.85
2022-10-25T08:37:14.297Z,14.82
2022-10-25T08:38:14.282Z,14.84
2022-10-25T08:39:14.270Z,14.85
2022-10-25T08:40:14.260Z,14.88
2022-10-25T08:41:14.283Z,14.95
2022-10-25T08:42:14.245Z,14.89
2022-10-25T08:43:14.243Z,14.88
2022-10-25T08:44:14.229Z,14.89
2022-10-25T08:45:14.215Z,14.87
2022-10-25T08:46:14.237Z,14.96
2022-10-25T08:47:14.201Z,15.11
2022-10-25T08:48:14.199Z,15.02
2022-10-25T08:49:14.181Z,15.04
2022-10-25T08:50:14.174Z,15.04
2022-10-25T08:51:14.208Z,15.19
2022-10-25T08:52:16.718Z,15.18
2022-10-25T08:53:15.152Z,15.18
2022-10-25T08:54:14.142Z,15.28
2022-10-25T08:55:14.131Z,15.36
2022-10-25T08:56:17.746Z,15.33
2022-10-25T08:57:16.293Z,15.55
2022-10-25T08:58:15.117Z,15.51
2022-10-25T08:59:14.100Z,15.48
2022-10-25T09:00:14.091Z,15.51
2022-10-25T09:01:14.229Z,15.57
2022-10-25T09:02:14.150Z,15.64
2022-10-25T09:03:15.387Z,15.55
2022-10-25T09:04:15.071Z,15.72
2022-10-25T09:05:14.047Z,15.70
2022-10-25T09:06:14.067Z,15.70
2022-10-25T09:07:14.063Z,15.69
2022-10-25T09:08:14.019Z,15.70
2022-10-25T09:09:14.015Z,15.64
2022-10-25T09:10:14.011Z,15.70
2022-10-25T09:11:14.030Z,15.79
2022-10-25T09:12:13.998Z,15.77
2022-10-25T09:13:14.000Z,15.80
2022-10-25T09:14:13.977Z,15.80
2022-10-25T09:15:13.968Z,15.79
2022-10-25T09:16:13.994Z,15.76
2022-10-25T09:17:13.956Z,15.82
2022-10-25T09:18:13.942Z,15.76
2022-10-25T09:19:13.998Z,15.75
2022-10-25T09:20:13.926Z,15.82
2022-10-25T09:21:17.519Z,15.75
2022-10-25T09:22:14.917Z,15.79
2022-10-25T09:23:13.930Z,15.85
2022-10-25T09:24:13.889Z,15.91
2022-10-25T09:25:13.897Z,15.92
2022-10-25T09:26:13.909Z,15.92
2022-10-25T09:27:13.877Z,15.94
2022-10-25T09:28:13.864Z,16.02
2022-10-25T09:29:13.854Z,16.00
2022-10-25T09:30:13.845Z,16.00
2022-10-25T09:31:13.864Z,16.02
2022-10-25T09:32:13.826Z,16.12
2022-10-25T09:33:13.915Z,16.02
2022-10-25T09:34:13.815Z,16.10
2022-10-25T09:35:13.804Z,16.20
2022-10-25T09:36:13.814Z,16.24
2022-10-25T09:37:13.795Z,16.31
2022-10-25T09:38:13.774Z,16.17
2022-10-25T09:39:15.951Z,16.28
2022-10-25T09:40:14.756Z,16.24
2022-10-25T09:41:13.778Z,16.21
2022-10-25T09:42:13.739Z,16.16
2022-10-25T09:43:13.735Z,16.24
2022-10-25T09:44:13.721Z,16.32
2022-10-25T09:45:13.712Z,16.32
2022-10-25T09:46:13.730Z,16.26
2022-10-25T09:47:13.701Z,16.53
2022-10-25T09:48:13.686Z,16.47
2022-10-25T09:49:13.678Z,16.38
2022-10-25T09:50:13.667Z,16.49
2022-10-25T09:51:13.694Z,16.59
2022-10-25T09:52:13.650Z,16.59
2022-10-25T09:53:14.258Z,16.62
2022-10-25T09:54:13.651Z,16.56
2022-10-25T09:55:13.627Z,16.54
2022-10-25T09:56:13.646Z,16.54
2022-10-25T09:57:13.635Z,16.54
2022-10-25T09:58:13.604Z,16.68
2022-10-25T09:59:13.600Z,16.75
2022-10-25T10:00:13.591Z,16.71
2022-10-25T10:01:13.690Z,16.79
2022-10-25T10:02:13.769Z,16.66
2022-10-25T10:03:13.568Z,16.82
2022-10-25T10:04:13.558Z,16.90
2022-10-25T10:05:13.542Z,16.94
2022-10-25T10:06:13.537Z,17.04
2022-10-25T10:07:13.563Z,17.05
2022-10-25T10:08:13.525Z,17.02
2022-10-25T10:09:13.516Z,16.96
2022-10-25T10:10:13.544Z,16.99
2022-10-25T10:11:13.506Z,16.99
2022-10-25T10:12:13.516Z,16.98
2022-10-25T10:13:13.489Z,16.99
2022-10-25T10:14:13.472Z,16.87
2022-10-25T10:15:13.467Z,16.96
2022-10-25T10:16:13.458Z,16.91
2022-10-25T10:17:13.483Z,16.84
2022-10-25T10:18:13.445Z,16.82
2022-10-25T10:19:13.431Z,16.98
2022-10-25T10:20:13.422Z,17.04
2022-10-25T10:21:13.410Z,17.44
2022-10-25T10:22:13.457Z,17.73
2022-10-25T10:23:13.395Z,18.00
2022-10-25T10:24:13.392Z,18.30
2022-10-25T10:25:13.381Z,18.68
2022-10-25T10:26:13.367Z,18.74
2022-10-25T10:27:13.395Z,18.53
2022-10-25T10:28:13.350Z,18.48
2022-10-25T10:29:17.560Z,18.23
2022-10-25T10:30:14.364Z,18.81
2022-10-25T10:31:13.326Z,19.70
2022-10-25T10:32:13.346Z,20.53
2022-10-25T10:33:13.314Z,20.43
2022-10-25T10:34:13.301Z,20.75
2022-10-25T10:35:13.295Z,20.66
2022-10-25T10:36:13.286Z,21.20
2022-10-25T10:37:13.312Z,21.90
2022-10-25T10:38:13.268Z,22.69
2022-10-25T10:39:13.258Z,22.59
2022-10-25T10:40:13.361Z,22.69
2022-10-25T10:41:13.241Z,22.10
2022-10-25T10:42:15.158Z,21.39
2022-10-25T10:43:14.228Z,21.15
2022-10-25T10:44:13.235Z,20.67
2022-10-25T10:45:13.209Z,20.14
2022-10-25T10:46:13.204Z,19.63
2022-10-25T10:47:14.217Z,19.24
2022-10-25T10:48:13.190Z,19.09
2022-10-25T10:49:13.178Z,19.04
2022-10-25T10:50:13.241Z,18.70
2022-10-25T10:51:25.506Z,18.92
2022-10-25T10:52:15.210Z,18.78
2022-10-25T10:53:13.146Z,18.41
2022-10-25T10:54:13.209Z,18.15
2022-10-25T10:55:13.122Z,18.26
2022-10-25T10:56:13.128Z,18.41
2022-10-25T10:57:13.136Z,18.35
2022-10-25T10:58:13.098Z,18.48
2022-10-25T10:59:13.089Z,18.28
2022-10-25T11:00:13.105Z,18.31
2022-10-25T11:01:13.176Z,18.28
2022-10-25T11:02:13.312Z,18.23
2022-10-25T11:03:13.057Z,18.13
2022-10-25T11:04:13.055Z,18.13
2022-10-25T11:05:13.040Z,18.12
2022-10-25T11:06:13.037Z,18.12
2022-10-25T11:07:13.057Z,18.18
2022-10-25T11:08:13.013Z,18.23
2022-10-25T11:09:13.061Z,18.12
2022-10-25T11:10:12.995Z,18.15
2022-10-25T11:11:12.989Z,18.09
2022-10-25T11:12:13.015Z,17.93
2022-10-25T11:13:13.043Z,17.88
2022-10-25T11:14:12.959Z,17.79
2022-10-25T11:15:12.954Z,17.79
2022-10-25T11:16:12.943Z,17.91
2022-10-25T11:17:12.941Z,17.93
2022-10-25T11:18:12.964Z,17.98
2022-10-25T11:19:12.922Z,17.89
2022-10-25T11:20:12.913Z,18.09
2022-10-25T11:21:12.895Z,18.04
2022-10-25T11:22:12.922Z,17.95
2022-10-25T11:23:12.902Z,18.00
2022-10-25T11:24:12.875Z,17.95
2022-10-25T11:25:12.865Z,17.97
2022-10-25T11:26:12.860Z,18.18
2022-10-25T11:27:12.863Z,18.13
2022-10-25T11:28:12.877Z,18.18
2022-10-25T11:29:12.907Z,18.20
2022-10-25T11:30:12.825Z,18.43
2022-10-25T11:31:12.823Z,18.40
2022-10-25T11:32:12.812Z,18.63
2022-10-25T11:33:12.838Z,18.93
2022-10-25T11:34:12.792Z,19.09
2022-10-25T11:35:12.782Z,19.12
2022-10-25T11:36:12.775Z,19.24
2022-10-25T11:37:12.766Z,19.52
2022-10-25T11:38:12.785Z,19.69
2022-10-25T11:39:12.748Z,19.64
2022-10-25T11:40:12.750Z,19.18
2022-10-25T11:41:12.733Z,18.90
2022-10-25T11:42:12.749Z,18.95
2022-10-25T11:43:12.745Z,18.93
2022-10-25T11:44:12.709Z,18.80
2022-10-25T11:45:12.765Z,18.52
2022-10-25T11:46:12.677Z,18.50
2022-10-25T11:47:13.682Z,18.16
2022-10-25T11:48:12.705Z,18.07
2022-10-25T11:49:12.658Z,18.00
2022-10-25T11:50:12.653Z,17.86
2022-10-25T11:51:12.660Z,17.89
2022-10-25T11:52:12.634Z,17.80
2022-10-25T11:53:12.659Z,17.86
2022-10-25T11:54:12.614Z,17.76
2022-10-25T11:55:12.613Z,17.76
2022-10-25T11:56:12.609Z,17.73
2022-10-25T11:57:12.607Z,17.78
2022-10-25T11:58:12.614Z,17.67
2022-10-25T11:59:12.580Z,17.63
2022-10-25T12:00:12.661Z,17.60
2022-10-25T12:01:12.730Z,17.54
2022-10-25T12:02:12.556Z,17.49
2022-10-25T12:03:12.618Z,17.35
2022-10-25T12:04:12.551Z,17.49
2022-10-25T12:05:12.524Z,17.51
2022-10-25T12:06:12.524Z,17.53
2022-10-25T12:07:12.516Z,17.44
2022-10-25T12:08:12.537Z,17.41
2022-10-25T12:09:12.493Z,17.42
2022-10-25T12:10:12.487Z,17.37
2022-10-25T12:11:15.003Z,17.53
2022-10-25T12:12:13.483Z,17.41
2022-10-25T12:13:12.503Z,17.30
2022-10-25T12:14:12.459Z,17.31
2022-10-25T12:15:12.458Z,17.39
2022-10-25T12:16:12.442Z,17.49
2022-10-25T12:17:12.502Z,17.60
2022-10-25T12:18:12.459Z,17.63
2022-10-25T12:19:12.418Z,17.60
2022-10-25T12:20:12.416Z,17.63
2022-10-25T12:21:12.402Z,17.73
2022-10-25T12:22:12.396Z,17.64
2022-10-25T12:23:12.413Z,17.75
2022-10-25T12:24:12.370Z,17.76
2022-10-25T12:25:12.373Z,17.70
2022-10-25T12:26:12.358Z,17.60
2022-10-25T12:27:12.354Z,17.51
2022-10-25T12:28:12.375Z,17.54
2022-10-25T12:29:12.345Z,17.46
2022-10-25T12:30:12.361Z,17.42
2022-10-25T12:31:12.313Z,17.38
2022-10-25T12:32:12.314Z,17.42
2022-10-25T12:33:12.400Z,17.42
2022-10-25T12:34:12.309Z,17.49
2022-10-25T12:35:12.284Z,17.59
2022-10-25T12:36:12.274Z,17.65
2022-10-25T12:37:12.272Z,17.80
2022-10-25T12:38:12.288Z,18.10
2022-10-25T12:39:12.259Z,18.31
2022-10-25T12:40:12.276Z,18.44
2022-10-25T12:41:12.237Z,18.43
2022-10-25T12:42:12.230Z,18.26
2022-10-25T12:43:12.251Z,18.25
2022-10-25T12:44:12.204Z,18.28
2022-10-25T12:45:12.198Z,18.31
2022-10-25T12:46:12.186Z,18.12
2022-10-25T12:47:12.188Z,18.09
2022-10-25T12:48:12.208Z,18.00
2022-10-25T12:49:19.174Z,18.07
2022-10-25T12:50:12.185Z,17.95
2022-10-25T12:51:15.173Z,17.79
2022-10-25T12:52:12.152Z,17.82
2022-10-25T12:53:12.166Z,17.82